Time;durP1;ratioP1;P1;durP2;ratioP2;P2;SDS_P1;SDS_P2;PMS_P1;PMS_P2;Temp;Humidity;BMP_temperature;BMP_pressure;BME280_temperature;BME280_humidity;BME280_pressure;Samples;Min_cycle;Max_cycle;Signal;HPM_P1;HPM_P2
2022/01/12 00:00:56;;;;;;;1.00;0.90;;;20.60;52.30;;;;;;4972148;28;20430;-77
2022/01/12 00:03:22;;;;;;;1.37;0.87;;;;;;;;;;4972041;28;20410;-78
2022/01/12 00:05:48;;;;;;;1.40;1.30;;;;;;;;;;4972246;28;20405;-77
2022/01/12 00:08:17;;;;;;;0.80;0.80;;;;;;;;;;4970536;28;20441;-78
2022/01/12 00:10:43;;;;;;;0.80;0.80;;;;;;;;;;4969150;28;20457;-77
2022/01/12 00:13:09;;;;;;;0.90;0.90;;;;;;;;;;4971857;28;20460;-77
2022/01/12 00:15:36;;;;;;;1.20;1.10;;;;;;;;;;4971900;28;20422;-77
2022/01/12 00:18:02;;;;;;;0.80;0.80;;;19.80;56.90;;;;;;4971006;28;20469;-77
2022/01/12 00:20:28;;;;;;;0.70;0.70;;;19.80;72.90;;;;;;4971582;28;20501;-77
2022/01/12 00:22:54;;;;;;;1.53;1.00;;;;;;;;;;4971649;28;20502;-77
2022/01/12 00:33:16;;;;;;;1.17;1.00;;;19.60;70.30;;;;;;4971513;28;20433;-77
2022/01/12 00:35:47;;;;;;;1.10;1.00;;;19.70;49.50;;;;;;4990588;28;20433;-77
2022/01/12 00:38:14;;;;;;;1.10;1.10;;;19.30;49.30;;;;;;4976512;28;20469;-78
2022/01/12 00:40:47;;;;;;;1.20;1.20;;;19.30;49.50;;;;;;4971161;28;20525;-77
2022/01/12 00:43:13;;;;;;;0.90;0.90;;;19.70;70.30;;;;;;4971262;28;20414;-78
2022/01/12 00:45:44;;;;;;;0.90;0.80;;;19.70;49.30;;;;;;4971225;28;20421;-78
2022/01/12 00:48:10;;;;;;;1.10;1.10;;;;;;;;;;4971142;28;20441;-77
2022/01/12 00:50:36;;;;;;;1.10;1.10;;;19.70;62.10;;;;;;4971190;28;20422;-77
2022/01/12 00:53:03;;;;;;;0.97;0.97;;;19.50;73.00;;;;;;4971175;28;20484;-77
2022/01/12 00:55:30;;;;;;;1.17;1.17;;;21.40;74.50;;;;;;4971111;28;20422;-77
2022/01/12 00:57:58;;;;;;;1.20;0.93;;;;;;;;;;4970872;28;20487;-77
2022/01/12 01:00:24;;;;;;;1.00;1.00;;;19.60;69.00;;;;;;4970930;28;20453;-78
2022/01/12 01:02:50;;;;;;;0.93;0.93;;;;;;;;;;4970994;28;20414;-77
2022/01/12 01:05:20;;;;;;;1.00;1.00;;;;;;;;;;4971033;28;20461;-77
2022/01/12 01:07:46;;;;;;;1.40;1.30;;;19.60;67.20;;;;;;4970446;28;20488;-77
2022/01/12 01:10:18;;;;;;;1.03;1.03;;;;;;;;;;4970876;28;20425;-78
2022/01/12 01:12:46;;;;;;;0.90;0.90;;;;;;;;;;4970842;28;20978;-78
2022/01/12 01:15:15;;;;;;;0.70;0.70;;;19.40;51.70;;;;;;4971038;28;20473;-77
2022/01/12 01:25:44;;;;;;;1.27;1.27;;;19.50;71.40;;;;;;4970516;28;20521;-77
2022/01/12 01:28:10;;;;;;;0.90;0.90;;;19.60;49.50;;;;;;4970565;28;21119;-78
2022/01/12 01:30:38;;;;;;;0.90;0.90;;;19.60;50.00;;;;;;4970565;28;20185;-77
2022/01/12 01:33:07;;;;;;;0.80;0.70;;;19.60;49.60;;;;;;4970703;28;20413;-77
2022/01/12 01:35:39;;;;;;;1.00;1.00;;;19.80;63.80;;;;;;4988841;28;20924;-77
2022/01/12 01:38:06;;;;;;;0.80;0.80;;;19.50;49.60;;;;;;4977547;28;20501;-76
2022/01/12 01:40:35;;;;;;;1.00;1.00;;;19.30;61.40;;;;;;4970100;28;20421;-76
2022/01/12 01:53:49;;;;;;;0.90;0.90;;;19.60;49.50;;;;;;4970270;28;20444;-78
2022/01/12 01:56:16;;;;;;;1.33;1.23;;;;;;;;;;4970212;28;20513;-77
2022/01/12 01:58:42;;;;;;;1.13;1.03;;;;;;;;;;4969742;28;21357;-77
2022/01/12 02:01:08;;;;;;;1.07;1.07;;;19.40;72.40;;;;;;4970145;28;20521;-77
2022/01/12 02:03:34;;;;;;;2.03;0.93;;;;;;;;;;4970060;28;20425;-77
2022/01/12 02:06:00;;;;;;;1.73;1.27;;;;;;;;;;4970162;28;20429;-78
2022/01/12 02:08:27;;;;;;;0.97;0.97;;;19.50;49.80;;;;;;4969702;28;20513;-77
2022/01/12 02:10:58;;;;;;;0.70;0.70;;;19.50;49.30;;;;;;4970223;28;20627;-77
2022/01/12 02:13:25;;;;;;;0.80;0.80;;;19.50;70.20;;;;;;4984844;28;20494;-78
2022/01/12 02:15:52;;;;;;;0.80;0.80;;;21.90;51.20;;;;;;4967210;28;20466;-78
2022/01/12 02:40:30;;;;;;;1.17;1.17;;;20.00;50.10;;;;;;4960185;28;20647;-78
2022/01/12 02:43:07;;;;;;;0.80;0.80;;;;;;;;;;4971709;28;20473;-77
2022/01/12 02:51:13;;;;;;;1.07;1.07;;;;;;;;;;4972969;28;20460;-78
2022/01/12 02:53:41;;;;;;;0.97;0.97;;;21.20;50.70;;;;;;4973141;28;20444;-78
2022/01/12 02:56:21;;;;;;;1.00;1.00;;;19.40;55.80;;;;;;4973275;28;20847;-77
2022/01/12 02:58:50;;;;;;;1.23;1.23;;;19.40;49.50;;;;;;4973235;28;20572;-77
2022/01/12 03:03:46;;;;;;;1.00;1.00;;;19.20;49.50;;;;;;4972611;28;20450;-78
2022/01/12 03:06:17;;;;;;;2.80;0.90;;;;;;;;;;4973062;28;20476;-77
2022/01/12 03:08:44;;;;;;;0.90;0.90;;;;;;;;;;4972687;28;20465;-78
2022/01/12 03:11:16;;;;;;;1.07;1.00;;;19.40;49.40;;;;;;4972860;28;20438;-77
2022/01/12 03:13:42;;;;;;;0.80;0.80;;;19.30;49.70;;;;;;4972874;28;20432;-78
2022/01/12 03:16:14;;;;;;;0.83;0.83;;;19.40;49.60;;;;;;4972778;28;20541;-77
2022/01/12 03:18:44;;;;;;;0.73;0.73;;;19.40;49.70;;;;;;4972249;28;20489;-77
2022/01/12 03:21:11;;;;;;;1.30;0.97;;;19.40;49.70;;;;;;4972561;28;20544;-77
2022/01/12 03:23:37;;;;;;;1.10;1.10;;;;;;;;;;4972558;28;20417;-77
2022/01/12 03:26:04;;;;;;;1.07;1.07;;;19.40;49.70;;;;;;4971077;28;20473;-77
2022/01/12 03:28:30;;;;;;;0.90;0.90;;;;;;;;;;4972478;28;20422;-78
2022/01/12 03:31:19;;;;;;;1.13;1.13;;;;;;;;;;4972273;28;20438;-77
2022/01/12 03:38:54;;;;;;;1.13;1.13;;;19.30;57.30;;;;;;4991784;28;20998;-77
2022/01/12 03:41:21;;;;;;;1.00;1.00;;;19.30;49.90;;;;;;4983315;28;20430;-77
2022/01/12 03:43:47;;;;;;;1.00;1.00;;;;;;;;;;4972230;28;20421;-78
2022/01/12 03:46:17;;;;;;;1.30;1.30;;;20.00;50.20;;;;;;4972378;28;20414;-77
2022/01/12 03:48:43;;;;;;;1.10;1.10;;;19.40;58.80;;;;;;4971726;28;20517;-77
2022/01/12 03:51:08;;;;;;;0.93;0.93;;;19.40;57.80;;;;;;4972135;28;20830;-78
2022/01/12 03:53:34;;;;;;;1.20;1.20;;;;;;;;;;4971955;28;20190;-78
2022/01/12 03:56:00;;;;;;;1.17;1.17;;;;;;;;;;4970742;28;20697;-78
2022/01/12 03:58:26;;;;;;;0.90;0.90;;;;;;;;;;4971863;28;20462;-77
2022/01/12 04:00:52;;;;;;;1.20;1.10;;;;;;;;;;4972063;28;20426;-78
2022/01/12 04:03:18;;;;;;;1.37;1.37;;;;;;;;;;4971674;28;20422;-76
2022/01/12 04:08:29;;;;;;;0.90;0.90;;;;;;;;;;4972026;28;20416;-78
2022/01/12 04:10:57;;;;;;;1.00;1.00;;;19.10;57.60;;;;;;4971793;28;20496;-77
2022/01/12 04:13:25;;;;;;;1.37;1.10;;;19.40;51.30;;;;;;4971852;28;20413;-78
2022/01/12 04:15:54;;;;;;;1.40;1.30;;;19.50;54.60;;;;;;4971606;28;20422;-77
2022/01/12 04:18:20;;;;;;;1.20;1.10;;;;;;;;;;4970255;28;20466;-77
2022/01/12 04:20:47;;;;;;;1.50;1.50;;;19.40;53.50;;;;;;4965654;28;20917;-78
2022/01/12 04:23:17;;;;;;;1.10;1.10;;;19.30;49.70;;;;;;4966876;28;20482;-78
2022/01/12 04:25:56;;;;;;;1.10;1.10;;;19.60;58.20;;;;;;4966484;28;20858;-77
2022/01/12 04:28:22;;;;;;;1.57;1.47;;;;;;;;;;4969665;28;20438;-77
2022/01/12 04:30:49;;;;;;;1.37;1.30;;;17.30;47.40;;;;;;4969085;28;20522;-77
2022/01/12 04:33:17;;;;;;;1.77;1.70;;;18.90;47.70;;;;;;4968489;28;20437;-76
2022/01/12 04:35:48;;;;;;;1.60;1.50;;;;;;;;;;4969673;28;20474;-76
2022/01/12 04:38:15;;;;;;;2.03;1.80;;;19.10;50.60;;;;;;4970456;28;20465;-78
2022/01/12 04:40:41;;;;;;;2.20;2.00;;;19.20;47.90;;;;;;4971411;28;20968;-77
2022/01/12 04:43:09;;;;;;;1.60;1.60;;;;;;;;;;4971327;28;20422;-77
2022/01/12 04:45:45;;;;;;;2.17;2.07;;;19.20;55.30;;;;;;4969444;28;20429;-77
2022/01/12 04:50:45;;;;;;;2.03;1.80;;;19.50;49.70;;;;;;4971119;28;20916;-77
2022/01/12 04:53:13;;;;;;;1.40;1.40;;;19.20;47.90;;;;;;4970865;28;20441;-77
2022/01/12 04:55:39;;;;;;;1.10;1.10;;;;;;;;;;4970318;28;20432;-77
2022/01/12 04:58:06;;;;;;;1.80;1.70;;;19.70;48.10;;;;;;4971042;28;20560;-77
2022/01/12 05:00:34;;;;;;;1.50;1.50;;;19.10;59.00;;;;;;4971164;28;20406;-78
2022/01/12 05:13:48;;;;;;;1.13;1.13;;;19.20;48.20;;;;;;4969301;28;20445;-78
2022/01/12 05:16:14;;;;;;;1.20;1.20;;;19.20;47.90;;;;;;4967422;28;20410;-77
2022/01/12 05:18:41;;;;;;;1.13;1.10;;;19.20;48.10;;;;;;4965271;28;20573;-77
2022/01/12 05:21:08;;;;;;;1.60;1.50;;;19.20;48.10;;;;;;4962357;28;20445;-78
2022/01/12 05:23:35;;;;;;;1.53;1.47;;;18.90;48.20;;;;;;4969208;28;20787;-77
2022/01/12 05:26:01;;;;;;;1.60;1.60;;;19.20;60.60;;;;;;4970687;28;20422;-77
2022/01/12 05:28:28;;;;;;;1.40;1.40;;;19.20;48.20;;;;;;4968987;28;20464;-78
2022/01/12 05:30:55;;;;;;;1.47;1.30;;;19.20;60.30;;;;;;4970700;28;20438;-77
2022/01/12 05:33:24;;;;;;;1.30;1.20;;;19.40;50.80;;;;;;4965981;28;20965;-78
2022/01/12 05:35:50;;;;;;;2.30;2.20;;;;;;;;;;4968530;28;20468;-78
2022/01/12 05:38:16;;;;;;;1.43;1.33;;;;;;;;;;4969852;28;20827;-78
2022/01/12 05:40:50;;;;;;;1.60;1.50;;;19.20;48.50;;;;;;4968997;28;20461;-78
2022/01/12 05:43:21;;;;;;;1.50;1.40;;;19.10;60.10;;;;;;4969081;28;20505;-77
2022/01/12 05:45:47;;;;;;;1.80;1.70;;;;;;;;;;4970497;28;20410;-78
2022/01/12 05:50:41;;;;;;;1.73;1.63;;;19.20;49.00;;;;;;4970020;28;20496;-78
2022/01/12 05:53:07;;;;;;;4.03;1.40;;;;;;;;;;4968396;28;20229;-77
2022/01/12 05:55:33;;;;;;;3.33;1.60;;;19.10;48.90;;;;;;4970300;28;20457;-78
2022/01/12 05:57:59;;;;;;;1.90;1.10;;;18.90;48.70;;;;;;4970143;28;20477;-78
2022/01/12 06:00:27;;;;;;;4.07;2.30;;;19.20;49.10;;;;;;4968553;28;20415;-78
2022/01/12 06:02:53;;;;;;;1.10;1.10;;;;;;;;;;4970265;28;20480;-78
2022/01/12 06:05:20;;;;;;;2.10;1.97;;;19.10;54.50;;;;;;4970235;28;20406;-77
2022/01/12 06:07:47;;;;;;;1.83;1.73;;;19.20;49.20;;;;;;4973236;28;20554;-78
2022/01/12 06:10:14;;;;;;;1.80;1.70;;;19.30;57.70;;;;;;4974138;28;20925;-77
2022/01/12 06:12:40;;;;;;;2.97;1.60;;;;;;;;;;4973960;28;20536;-77
2022/01/12 06:15:07;;;;;;;1.50;1.43;;;19.00;49.20;;;;;;4973841;28;20886;-78
2022/01/12 06:17:33;;;;;;;0.97;0.97;;;;;;;;;;4973597;28;20608;-78
2022/01/12 06:19:59;;;;;;;2.83;1.73;;;;;;;;;;4973563;28;20458;-77
2022/01/12 06:22:25;;;;;;;1.77;1.67;;;;;;;;;;4973484;28;20563;-77
2022/01/12 06:24:51;;;;;;;1.80;1.53;;;19.20;54.20;;;;;;4973775;28;21097;-77
2022/01/12 06:27:20;;;;;;;2.13;1.90;;;19.20;53.20;;;;;;4973525;28;20422;-77
2022/01/12 06:32:21;;;;;;;1.50;1.40;;;;;;;;;;4973688;28;20516;-77
2022/01/12 06:34:47;;;;;;;1.63;1.43;;;;;;;;;;4985253;28;20810;-77
2022/01/12 06:37:12;;;;;;;2.65;1.80;;;18.90;61.40;;;;;;4971312;28;20500;-77
2022/01/12 06:39:38;;;;;;;2.03;1.93;;;19.10;52.30;;;;;;4971849;28;20424;-78
2022/01/12 06:42:05;;;;;;;3.10;1.50;;;19.40;59.70;;;;;;4971229;28;20199;-78
2022/01/12 06:44:31;;;;;;;1.47;1.37;;;;;;;;;;4973184;28;20481;-77
2022/01/12 06:47:02;;;;;;;1.63;1.53;;;;;;;;;;4973111;28;20410;-77
2022/01/12 06:49:28;;;;;;;2.10;2.00;;;;;;;;;;4973131;28;20850;-78
2022/01/12 06:51:54;;;;;;;1.93;1.60;;;;;;;;;;4973052;28;20521;-78
2022/01/12 06:54:20;;;;;;;1.40;1.10;;;19.20;49.20;;;;;;4972899;28;20896;-78
2022/01/12 06:56:46;;;;;;;1.10;1.10;;;19.80;49.50;;;;;;4973040;28;20530;-78
2022/01/12 06:59:12;;;;;;;1.57;1.47;;;;;;;;;;4973217;28;20465;-79
2022/01/12 07:01:38;;;;;;;1.47;1.37;;;;;;;;;;4973377;28;20461;-78
2022/01/12 07:04:04;;;;;;;1.73;1.47;;;;;;;;;;4973501;28;20454;-78
2022/01/12 07:06:30;;;;;;;2.20;1.33;;;;;;;;;;4973428;28;20508;-78
2022/01/12 07:08:56;;;;;;;1.53;1.43;;;;;;;;;;4973259;28;20409;-78
2022/01/12 07:11:22;;;;;;;3.40;1.27;;;;;;;;;;4973177;28;20945;-78
2022/01/12 07:13:48;;;;;;;2.10;1.40;;;;;;;;;;4973078;28;20414;-78
2022/01/12 07:16:14;;;;;;;1.90;1.80;;;;;;;;;;4973184;28;20418;-77
2022/01/12 07:18:40;;;;;;;1.20;1.10;;;;;;;;;;4972209;28;20497;-76
2022/01/12 07:21:06;;;;;;;1.67;1.40;;;;;;;;;;4972857;28;20509;-77
2022/01/12 07:23:32;;;;;;;1.50;1.50;;;;;;;;;;4972890;28;20425;-76
2022/01/12 07:25:58;;;;;;;1.47;1.37;;;;;;;;;;4972816;28;20410;-77
2022/01/12 07:28:24;;;;;;;1.53;1.43;;;;;;;;;;4971236;28;20465;-77
2022/01/12 07:30:50;;;;;;;1.67;1.57;;;;;;;;;;4968868;28;20794;-76
2022/01/12 07:33:16;;;;;;;2.60;1.87;;;19.40;49.50;;;;;;4970382;28;20426;-77
2022/01/12 07:35:43;;;;;;;3.20;1.27;;;19.10;49.10;;;;;;4973646;28;20440;-77
2022/01/12 07:38:09;;;;;;;1.57;1.10;;;19.30;70.80;;;;;;4972942;28;20611;-76
2022/01/12 07:40:35;;;;;;;1.30;1.20;;;;;;;;;;4972613;28;20438;-77
2022/01/12 07:43:02;;;;;;;1.40;1.40;;;19.10;49.30;;;;;;4972444;28;20414;-78
2022/01/12 07:45:28;;;;;;;1.17;1.17;;;;;;;;;;4972660;28;20455;-77
2022/01/12 07:47:54;;;;;;;1.27;1.27;;;;;;;;;;4972379;28;20441;-77
2022/01/12 07:50:20;;;;;;;3.33;1.60;;;;;;;;;;4972219;28;20460;-77
2022/01/12 07:52:46;;;;;;;1.30;1.20;;;;;;;;;;4972076;28;20445;-77
2022/01/12 07:55:12;;;;;;;1.80;1.70;;;;;;;;;;4972112;28;20519;-78
2022/01/12 07:57:38;;;;;;;1.43;1.43;;;;;;;;;;4972257;28;20466;-77
2022/01/12 08:00:05;;;;;;;1.43;1.43;;;20.10;49.80;;;;;;4972217;28;20410;-78
2022/01/12 08:02:31;;;;;;;1.20;1.20;;;;;;;;;;4972139;28;20595;-78
2022/01/12 08:04:57;;;;;;;1.47;1.47;;;;;;;;;;4972116;28;20434;-77
2022/01/12 08:07:23;;;;;;;3.97;1.60;;;;;;;;;;4972167;28;20458;-78
2022/01/12 08:09:49;;;;;;;1.10;1.10;;;;;;;;;;4970356;28;20432;-77
2022/01/12 08:12:15;;;;;;;1.10;1.10;;;;;;;;;;4971881;28;20430;-77
2022/01/12 08:14:41;;;;;;;1.50;1.37;;;19.20;64.50;;;;;;4971836;28;20782;-77
2022/01/12 08:17:07;;;;;;;1.10;1.10;;;;;;;;;;4971889;28;20409;-78
2022/01/12 08:19:37;;;;;;;1.50;1.40;;;;;;;;;;4970354;28;20220;-77
2022/01/12 08:22:05;;;;;;;1.30;1.20;;;18.90;56.90;;;;;;4970635;28;20462;-77
2022/01/12 08:24:31;;;;;;;1.83;1.73;;;;;;;;;;4971740;28;20414;-77
2022/01/12 08:26:57;;;;;;;1.03;1.03;;;;;;;;;;4971779;28;20818;-78
2022/01/12 08:29:25;;;;;;;3.33;1.30;;;;;;;;;;4971519;28;20469;-78
2022/01/12 08:31:51;;;;;;;1.23;1.13;;;;;;;;;;4970781;28;20539;-78
2022/01/12 08:34:17;;;;;;;2.53;1.40;;;;;;;;;;4971367;28;20453;-78
2022/01/12 08:36:42;;;;;;;2.90;1.43;;;19.00;67.00;;;;;;4971556;28;20525;-78
2022/01/12 08:39:09;;;;;;;1.37;1.37;;;19.90;49.70;;;;;;4971191;28;20453;-77
2022/01/12 08:41:38;;;;;;;1.60;1.50;;;19.10;48.80;;;;;;4971221;28;20198;-78
2022/01/12 08:44:08;;;;;;;1.30;1.30;;;19.10;62.70;;;;;;4971157;28;20414;-77
2022/01/12 08:46:35;;;;;;;1.37;1.37;;;19.10;51.00;;;;;;4971461;28;20453;-77
2022/01/12 08:49:01;;;;;;;1.30;1.30;;;;;;;;;;4971435;28;20418;-77
2022/01/12 08:51:27;;;;;;;1.13;1.13;;;;;;;;;;4971098;28;20792;-77
2022/01/12 08:53:53;;;;;;;1.00;1.00;;;;;;;;;;4971120;28;20445;-77
2022/01/12 08:56:19;;;;;;;1.07;1.07;;;;;;;;;;4971214;28;20406;-78
2022/01/12 08:58:46;;;;;;;1.33;1.20;;;19.00;49.10;;;;;;4970980;28;20537;-77
2022/01/12 09:01:12;;;;;;;1.40;1.40;;;19.00;58.50;;;;;;4971169;28;20445;-77
2022/01/12 09:03:39;;;;;;;1.47;1.37;;;18.90;57.70;;;;;;4971059;28;20406;-77
2022/01/12 09:06:05;;;;;;;1.10;1.10;;;;;;;;;;4971149;28;20174;-77
2022/01/12 09:08:36;;;;;;;1.33;1.23;;;19.00;56.80;;;;;;4969369;28;20449;-77
2022/01/12 09:11:02;;;;;;;1.30;1.30;;;;;;;;;;4970910;28;20938;-78
2022/01/12 09:13:28;;;;;;;1.20;1.20;;;;;;;;;;4970731;28;20429;-78
2022/01/12 09:15:54;;;;;;;1.13;1.13;;;;;;;;;;4970936;28;20512;-77
2022/01/12 09:18:20;;;;;;;1.33;1.33;;;;;;;;;;4970884;28;20500;-78
2022/01/12 09:20:47;;;;;;;1.20;1.20;;;18.80;58.70;;;;;;4970807;28;20429;-78
2022/01/12 09:23:13;;;;;;;1.17;1.17;;;;;;;;;;4970680;28;20437;-78
2022/01/12 09:25:41;;;;;;;1.60;1.50;;;;;;;;;;4970728;28;20780;-78
2022/01/12 09:28:07;;;;;;;1.50;1.40;;;;;;;;;;4970486;28;20806;-77
2022/01/12 09:30:33;;;;;;;1.23;1.23;;;;;;;;;;4968918;28;20425;-77
2022/01/12 09:32:59;;;;;;;1.10;1.10;;;;;;;;;;4969243;28;20957;-78
2022/01/12 09:35:26;;;;;;;1.30;1.30;;;20.60;50.00;;;;;;4987248;28;20932;-77
2022/01/12 09:37:52;;;;;;;1.20;1.20;;;18.80;57.50;;;;;;4988344;28;20452;-78
2022/01/12 09:40:18;;;;;;;1.33;1.23;;;19.00;49.20;;;;;;4989692;28;20409;-77
2022/01/12 09:42:46;;;;;;;1.70;1.60;;;18.90;49.10;;;;;;4969888;28;20517;-78
2022/01/12 09:45:15;;;;;;;1.13;1.13;;;19.20;58.70;;;;;;4970338;28;20837;-77
2022/01/12 09:47:42;;;;;;;1.10;1.10;;;;;;;;;;4970349;28;20426;-78
2022/01/12 09:50:09;;;;;;;1.53;1.43;;;19.20;49.90;;;;;;4970320;28;20426;-78
2022/01/12 09:52:35;;;;;;;1.40;1.30;;;;;;;;;;4970306;28;20442;-78
2022/01/12 09:55:01;;;;;;;1.60;1.50;;;;;;;;;;4970057;28;20460;-77
2022/01/12 09:57:27;;;;;;;1.20;1.10;;;;;;;;;;4970065;28;20801;-78
2022/01/12 09:59:53;;;;;;;1.17;1.17;;;;;;;;;;4970168;28;20406;-78
2022/01/12 10:02:20;;;;;;;1.13;1.03;;;19.20;49.30;;;;;;4969958;28;20457;-77
2022/01/12 10:04:46;;;;;;;1.30;1.30;;;19.00;68.00;;;;;;4969987;28;20835;-77
2022/01/12 10:07:13;;;;;;;1.63;1.53;;;;;;;;;;4970374;28;20417;-77
2022/01/12 10:09:45;;;;;;;1.27;1.27;;;19.10;48.90;;;;;;4970026;28;20417;-77
2022/01/12 10:12:18;;;;;;;1.83;1.60;;;19.20;54.10;;;;;;4970137;28;20437;-77
2022/01/12 10:14:45;;;;;;;1.37;1.30;;;19.50;54.40;;;;;;4970058;28;20421;-77
2022/01/12 10:17:12;;;;;;;1.47;1.37;;;19.10;50.10;;;;;;4970085;28;20422;-76
2022/01/12 10:19:39;;;;;;;1.00;1.00;;;19.00;49.20;;;;;;4969931;28;20511;-77
2022/01/12 10:22:07;;;;;;;1.47;1.37;;;19.10;49.30;;;;;;4970126;28;20440;-77
2022/01/12 10:24:40;;;;;;;1.50;1.50;;;19.10;49.60;;;;;;4969890;28;20410;-77
2022/01/12 10:27:18;;;;;;;1.30;1.30;;;19.10;48.80;;;;;;4970208;28;20440;-77
2022/01/12 10:29:45;;;;;;;1.40;1.30;;;19.10;49.30;;;;;;4970046;28;20413;-77
2022/01/12 10:32:13;;;;;;;1.47;1.47;;;;;;;;;;4969925;28;20556;-77
2022/01/12 10:34:39;;;;;;;1.97;1.87;;;;;;;;;;4980588;28;20791;-76
2022/01/12 10:37:08;;;;;;;1.30;1.30;;;19.10;49.20;;;;;;4989578;28;20421;-78
2022/01/12 10:39:34;;;;;;;1.37;1.27;;;;;;;;;;4989251;28;20497;-77
2022/01/12 10:42:06;;;;;;;1.17;1.17;;;18.90;54.50;;;;;;4975745;28;20430;-77
2022/01/12 10:45:02;;;;;;;1.40;1.40;;;19.10;48.90;;;;;;4970152;28;20493;-78
2022/01/12 10:47:29;;;;;;;1.43;1.37;;;19.20;52.80;;;;;;4970039;28;20414;-76
2022/01/12 10:49:55;;;;;;;1.30;1.20;;;;;;;;;;4969890;28;20906;-77
2022/01/12 10:52:34;;;;;;;1.67;1.57;;;19.30;50.20;;;;;;4969860;28;20440;-77
2022/01/12 10:55:09;;;;;;;1.03;1.03;;;19.80;49.60;;;;;;4971099;28;20857;-78
2022/01/12 10:57:40;;;;;;;1.67;1.57;;;19.20;48.90;;;;;;4973533;28;20406;-77
2022/01/12 11:00:06;;;;;;;1.30;1.20;;;;;;;;;;4972791;28;20414;-78
2022/01/12 11:02:33;;;;;;;1.27;1.27;;;19.20;49.20;;;;;;4972980;28;20905;-78
2022/01/12 11:05:00;;;;;;;1.30;1.30;;;19.10;67.30;;;;;;4972938;28;20830;-77
2022/01/12 11:07:27;;;;;;;1.63;1.53;;;19.10;49.70;;;;;;4973089;28;20405;-77
2022/01/12 11:09:59;;;;;;;1.37;1.37;;;18.80;48.70;;;;;;4972990;28;20519;-78
2022/01/12 11:12:25;;;;;;;1.43;1.37;;;;;;;;;;4972891;28;20945;-77
2022/01/12 11:14:51;;;;;;;2.10;1.30;;;;;;;;;;4972984;28;20824;-76
2022/01/12 11:17:17;;;;;;;1.10;1.10;;;18.90;59.80;;;;;;4972842;28;20498;-77
2022/01/12 11:20:01;;;;;;;1.33;1.33;;;19.30;48.80;;;;;;4972495;28;20560;-77
2022/01/12 11:23:09;;;;;;;1.10;1.10;;;19.30;48.80;;;;;;4972676;28;20429;-77
2022/01/12 11:25:42;;;;;;;1.13;1.13;;;19.40;65.30;;;;;;4971090;28;20406;-77
2022/01/12 11:28:27;;;;;;;1.60;1.50;;;19.40;48.70;;;;;;4972735;28;20824;-78
2022/01/12 11:30:54;;;;;;;1.40;1.40;;;;;;;;;;4972565;28;20515;-78
2022/01/12 11:33:40;;;;;;;1.00;1.00;;;19.40;71.40;;;;;;4972861;28;20405;-77
2022/01/12 11:36:35;;;;;;;1.83;1.10;;;19.30;55.80;;;;;;4992173;28;20942;-78
2022/01/12 11:39:10;;;;;;;1.20;1.20;;;19.40;50.20;;;;;;4992207;28;20747;-77
2022/01/12 11:41:41;;;;;;;1.23;1.20;;;19.40;59.00;;;;;;4981536;28;20449;-77
2022/01/12 11:44:10;;;;;;;1.10;1.10;;;19.60;50.10;;;;;;4972934;28;20767;-78
2022/01/12 11:46:44;;;;;;;1.50;1.50;;;19.50;48.70;;;;;;4972566;28;20417;-78
2022/01/12 11:49:10;;;;;;;1.20;1.20;;;19.50;48.70;;;;;;4972520;28;20469;-78
2022/01/12 11:51:37;;;;;;;1.33;1.33;;;19.50;49.00;;;;;;4971053;28;20450;-77
2022/01/12 11:54:12;;;;;;;3.77;1.50;;;19.70;64.90;;;;;;4972331;28;20558;-78
2022/01/12 11:56:49;;;;;;;1.50;1.50;;;19.60;48.80;;;;;;4972532;28;20854;-78
2022/01/12 11:59:15;;;;;;;1.13;1.13;;;;;;;;;;4972391;28;20456;-77
2022/01/12 12:01:53;;;;;;;1.20;1.20;;;19.70;60.90;;;;;;4972377;28;20516;-78
2022/01/12 12:04:30;;;;;;;1.10;1.10;;;19.70;53.20;;;;;;4972206;28;20960;-78
2022/01/12 12:07:13;;;;;;;1.63;1.00;;;19.90;62.60;;;;;;4972443;28;20449;-78
2022/01/12 12:09:53;;;;;;;0.90;0.90;;;19.70;48.50;;;;;;4972445;28;20505;-77
2022/01/12 12:12:22;;;;;;;1.17;1.00;;;19.70;70.00;;;;;;4972306;28;21000;-78
2022/01/12 12:14:53;;;;;;;1.20;1.20;;;19.80;51.80;;;;;;4972297;28;20436;-77
2022/01/12 12:17:21;;;;;;;0.80;0.80;;;19.80;48.70;;;;;;4972529;28;20505;-78
2022/01/12 12:19:47;;;;;;;1.33;1.23;;;19.70;48.60;;;;;;4970447;28;20493;-78
2022/01/12 12:22:16;;;;;;;1.17;1.07;;;19.80;48.60;;;;;;4972007;28;21438;-78
2022/01/12 12:24:43;;;;;;;1.60;1.50;;;19.80;48.60;;;;;;4970504;28;20442;-77
2022/01/12 12:27:10;;;;;;;1.30;1.30;;;19.30;48.40;;;;;;4971821;28;20500;-78
2022/01/12 12:29:37;;;;;;;1.27;1.27;;;19.70;49.70;;;;;;4971484;28;20409;-78
2022/01/12 12:32:03;;;;;;;1.17;1.17;;;;;;;;;;4971739;28;20521;-77
2022/01/12 12:34:30;;;;;;;1.30;1.30;;;19.50;48.40;;;;;;4980856;28;20968;-77
2022/01/12 12:37:02;;;;;;;1.10;1.10;;;19.90;48.40;;;;;;4980146;28;20414;-77
2022/01/12 12:39:40;;;;;;;1.50;1.00;;;19.80;48.10;;;;;;4967501;28;20554;-78
2022/01/12 12:42:15;;;;;;;0.93;0.93;;;19.90;48.80;;;;;;4971344;28;20422;-78
2022/01/12 12:44:41;;;;;;;0.90;0.90;;;;;;;;;;4971181;28;20410;-78
2022/01/12 12:47:11;;;;;;;1.10;1.10;;;20.00;48.60;;;;;;4971403;28;20767;-77
2022/01/12 12:49:55;;;;;;;0.90;0.90;;;20.30;48.60;;;;;;4971033;28;20473;-78
2022/01/12 12:52:24;;;;;;;0.90;0.90;;;20.10;48.60;;;;;;4971097;28;20434;-78
2022/01/12 12:54:51;;;;;;;1.00;1.00;;;;;;;;;;4971049;28;20559;-78
2022/01/12 12:57:21;;;;;;;1.30;1.10;;;;;;;;;;4970778;28;20437;-78
2022/01/12 13:00:08;;;;;;;1.20;1.10;;;20.00;48.40;;;;;;4970885;28;20446;-77
2022/01/12 13:02:39;;;;;;;1.50;1.50;;;20.00;48.40;;;;;;4970894;28;20422;-76
2022/01/12 13:05:10;;;;;;;1.00;1.00;;;20.10;48.50;;;;;;4970872;28;20718;-77
2022/01/12 13:07:40;;;;;;;1.27;1.27;;;20.10;70.30;;;;;;4970951;28;20438;-77
2022/01/12 13:10:13;;;;;;;0.90;0.90;;;20.10;48.70;;;;;;4969455;28;20414;-77
2022/01/12 13:12:39;;;;;;;1.00;1.00;;;;;;;;;;4970840;28;20437;-77
2022/01/12 13:15:11;;;;;;;0.97;0.97;;;20.40;48.70;;;;;;4970877;28;20417;-77
2022/01/12 13:17:41;;;;;;;0.90;0.90;;;19.90;48.50;;;;;;4970517;28;20436;-77
2022/01/12 13:22:49;;;;;;;1.43;1.33;;;;;;;;;;4971026;28;20445;-77
2022/01/12 13:25:17;;;;;;;1.03;1.03;;;21.70;49.30;;;;;;4970860;28;20477;-78
2022/01/12 13:27:47;;;;;;;1.00;1.00;;;20.40;54.20;;;;;;4970752;28;20465;-78
2022/01/12 13:30:31;;;;;;;1.20;1.20;;;20.90;48.30;;;;;;4970783;28;20429;-77
2022/01/12 13:32:58;;;;;;;1.03;1.03;;;20.20;48.50;;;;;;4969479;28;20417;-77
2022/01/12 13:35:34;;;;;;;1.00;1.00;;;20.50;70.40;;;;;;4987516;28;20887;-78
2022/01/12 13:38:02;;;;;;;0.87;0.87;;;20.20;48.30;;;;;;4990430;28;20885;-78
2022/01/12 13:40:40;;;;;;;1.13;1.10;;;20.30;47.90;;;;;;4988850;28;20916;-77
2022/01/12 13:43:06;;;;;;;1.10;1.10;;;20.30;48.20;;;;;;4970763;28;20406;-77
2022/01/12 13:45:49;;;;;;;1.13;1.13;;;20.30;69.10;;;;;;4971020;28;20426;-77
2022/01/12 13:48:20;;;;;;;0.90;0.90;;;20.30;48.30;;;;;;4970868;28;20807;-77
2022/01/12 13:50:54;;;;;;;0.80;0.80;;;20.10;47.80;;;;;;4971047;28;20426;-77
2022/01/12 13:53:34;;;;;;;1.00;1.00;;;20.30;48.30;;;;;;4970199;28;20422;-77
2022/01/12 13:56:01;;;;;;;1.00;1.00;;;20.70;48.40;;;;;;4972675;28;20890;-77
2022/01/12 13:58:28;;;;;;;0.97;0.97;;;20.30;48.30;;;;;;4973534;28;20498;-76
2022/01/12 14:01:10;;;;;;;1.27;1.17;;;20.50;48.00;;;;;;4973069;28;20937;-76
2022/01/12 14:03:55;;;;;;;1.20;1.10;;;19.90;47.70;;;;;;4973464;28;20738;-76
2022/01/12 14:06:26;;;;;;;0.97;0.97;;;20.30;48.10;;;;;;4974082;28;20406;-76
2022/01/12 14:08:57;;;;;;;0.90;0.90;;;20.20;48.10;;;;;;4973618;28;20720;-76
2022/01/12 14:11:32;;;;;;;1.00;1.00;;;22.00;49.20;;;;;;4973451;28;20438;-76
2022/01/12 14:14:00;;;;;;;1.10;1.10;;;20.20;48.20;;;;;;4973668;28;20511;-76
2022/01/12 14:16:37;;;;;;;1.00;1.00;;;20.20;48.00;;;;;;4973945;28;20418;-76
2022/01/12 14:19:03;;;;;;;1.27;1.20;;;20.20;48.40;;;;;;4972914;28;20473;-76
2022/01/12 14:21:29;;;;;;;1.20;1.20;;;;;;;;;;4972376;28;20483;-76
2022/01/12 14:23:56;;;;;;;1.00;1.00;;;20.10;48.60;;;;;;4971380;28;20506;-76
2022/01/12 14:26:26;;;;;;;1.57;1.10;;;20.20;51.00;;;;;;4970976;28;20405;-77
2022/01/12 14:28:52;;;;;;;0.93;0.93;;;;;;;;;;4972005;28;20425;-76
2022/01/12 14:31:18;;;;;;;1.73;0.90;;;19.70;56.00;;;;;;4975002;28;20461;-77
2022/01/12 14:33:44;;;;;;;1.03;1.03;;;;;;;;;;4977653;28;20420;-77
2022/01/12 14:36:10;;;;;;;1.40;1.40;;;;;;;;;;4993538;28;20178;-77
2022/01/12 14:38:36;;;;;;;1.43;1.40;;;;;;;;;;4993644;28;20575;-77
2022/01/12 14:41:02;;;;;;;1.00;1.00;;;;;;;;;;4987134;28;20433;-78
2022/01/12 14:43:30;;;;;;;1.10;1.10;;;;;;;;;;4973546;28;20409;-78
2022/01/12 14:45:56;;;;;;;1.00;1.00;;;;;;;;;;4973718;28;20405;-77
2022/01/12 14:48:23;;;;;;;0.90;0.90;;;19.70;54.10;;;;;;4973600;28;20406;-77
2022/01/12 14:50:50;;;;;;;1.27;1.17;;;19.80;48.90;;;;;;4973131;28;20438;-77
2022/01/12 14:53:19;;;;;;;0.97;0.97;;;19.70;49.00;;;;;;4973302;28;20422;-76
2022/01/12 14:55:44;;;;;;;1.10;1.10;;;19.70;49.70;;;;;;4973124;28;20432;-78
2022/01/12 14:58:10;;;;;;;0.90;0.90;;;;;;;;;;4973344;28;20552;-77
2022/01/12 15:00:36;;;;;;;0.80;0.80;;;;;;;;;;4973079;28;20421;-77
2022/01/12 15:03:06;;;;;;;0.97;0.97;;;19.70;49.30;;;;;;4973217;28;20428;-78